Time;durP1;ratioP1;P1;durP2;ratioP2;P2;SDS_P1;SDS_P2;PMS_P1;PMS_P2;Temp;Humidity;BMP_temperature;BMP_pressure;BME280_temperature;BME280_humidity;BME280_pressure;Samples;Min_cycle;Max_cycle;Signal;HPM_P1;HPM_P2
2021/09/18 00:01:10;;;;;;;;;;;;;;;14.88;76.35;101655.47;5056248;28;19916;-35
2021/09/18 00:03:35;;;;;;;;;;;;;;;14.83;76.60;101658.09;5055366;28;20246;-35
2021/09/18 00:06:00;;;;;;;;;;;;;;;14.78;76.77;101650.63;5055554;28;20006;-35
2021/09/18 00:08:26;;;;;;;;;;;;;;;14.67;79.42;101649.59;5055571;28;19909;-35
2021/09/18 00:10:51;;;;;;;;;;;;;;;14.64;78.09;101647.38;5055960;28;20094;-35
2021/09/18 00:13:16;;;;;;;;;;;;;;;14.65;77.57;101643.56;5055476;28;19908;-35
2021/09/18 00:15:42;;;;;;;;;;;;;;;14.67;77.50;101654.22;5055984;28;20222;-35
2021/09/18 00:18:07;;;;;;;;;;;;;;;14.68;77.44;101658.59;5055149;28;19915;-35
2021/09/18 00:20:32;;;;;;;;;;;;;;;14.68;77.56;101655.88;5055247;28;19908;-35
2021/09/18 00:22:58;;;;;;;;;;;;;;;14.68;77.47;101661.31;5055540;28;19915;-35
2021/09/18 00:25:24;;;;;;;;;;;;;;;14.66;77.22;101647.13;5055236;28;20308;-35
2021/09/18 00:27:49;;;;;;;;;;;;;;;14.62;77.24;101652.22;5055467;28;19916;-36
2021/09/18 00:30:14;;;;;;;;;;;;;;;14.60;77.41;101648.09;5055115;28;19908;-36
2021/09/18 00:32:39;;;;;;;;;;;;;;;14.57;77.41;101654.81;5054888;28;20353;-35
2021/09/18 00:35:05;;;;;;;;;;;;;;;14.58;77.13;101652.91;5055032;28;19913;-35
2021/09/18 00:37:31;;;;;;;;;;;;;;;14.57;77.52;101652.09;5055908;28;19962;-35
2021/09/18 00:39:56;;;;;;;;;;;;;;;14.55;77.32;101646.06;5055221;28;19912;-36
2021/09/18 00:42:21;;;;;;;;;;;;;;;14.50;77.34;101654.13;5054767;28;19908;-35
2021/09/18 00:44:46;;;;;;;;;;;;;;;14.48;77.50;101652.69;5054875;28;19915;-35
2021/09/18 00:47:11;;;;;;;;;;;;;;;14.43;77.55;101651.47;5054587;28;19909;-35
2021/09/18 00:49:37;;;;;;;;;;;;;;;14.41;77.33;101655.50;5055141;28;19913;-35
2021/09/18 00:52:02;;;;;;;;;;;;;;;14.38;77.30;101650.53;5055177;28;19982;-35
2021/09/18 00:54:27;;;;;;;;;;;;;;;14.36;77.50;101655.41;5054348;28;19986;-35
2021/09/18 00:56:54;;;;;;;;;;;;;;;14.33;77.52;101653.97;5054942;28;19948;-35
2021/09/18 00:59:20;;;;;;;;;;;;;;;14.30;77.55;101653.59;5054895;28;19916;-35
2021/09/18 01:01:45;;;;;;;;;;;;;;;14.26;77.67;101652.44;5055125;28;20312;-35
2021/09/18 01:04:10;;;;;;;;;;;;;;;14.22;77.50;101659.41;5054490;28;19913;-35
2021/09/18 01:06:36;;;;;;;;;;;;;;;14.20;77.36;101658.78;5055264;28;19912;-35
2021/09/18 01:09:01;;;;;;;;;;;;;;;14.15;77.72;101654.06;5054806;28;20267;-35
2021/09/18 01:11:27;;;;;;;;;;;;;;;14.13;77.42;101653.47;5054309;28;19909;-35
2021/09/18 01:13:52;;;;;;;;;;;;;;;14.09;77.66;101647.66;5054249;28;20359;-35
2021/09/18 01:16:21;;;;;;;;;;;;;;;14.08;77.86;101650.63;5054287;28;19944;-36
2021/09/18 01:18:47;;;;;;;;;;;;;;;14.05;77.87;101657.34;5054797;28;19962;-35
2021/09/18 01:21:12;;;;;;;;;;;;;;;14.01;77.68;101652.66;5054442;28;20303;-35
2021/09/18 01:23:38;;;;;;;;;;;;;;;13.97;77.49;101652.28;5053901;28;19916;-35
2021/09/18 01:26:03;;;;;;;;;;;;;;;13.96;77.86;101655.22;5054724;28;20233;-35
2021/09/18 01:28:28;;;;;;;;;;;;;;;13.93;77.78;101655.69;5054073;28;19908;-35
2021/09/18 01:30:53;;;;;;;;;;;;;;;13.91;77.60;101658.66;5054011;28;20360;-35
2021/09/18 01:33:19;;;;;;;;;;;;;;;13.87;78.00;101661.00;5053728;28;19913;-35
2021/09/18 01:35:44;;;;;;;;;;;;;;;13.84;77.88;101666.06;5053938;28;19915;-35
2021/09/18 01:38:09;;;;;;;;;;;;;;;13.81;77.87;101667.38;5053894;28;20323;-35
2021/09/18 01:40:42;;;;;;;;;;;;;;;13.81;77.91;101664.66;5053918;28;19909;-36
2021/09/18 01:43:08;;;;;;;;;;;;;;;13.80;77.98;101667.59;5053805;28;20323;-34
2021/09/18 01:45:34;;;;;;;;;;;;;;;13.78;77.78;101667.00;5053963;28;20009;-34
2021/09/18 01:48:02;;;;;;;;;;;;;;;13.76;77.97;101663.69;5054016;28;19967;-34
2021/09/18 01:50:39;;;;;;;;;;;;;;;13.73;78.01;101662.25;5054725;28;19912;-34
2021/09/18 01:53:05;;;;;;;;;;;;;;;13.71;77.86;101660.81;5053912;28;19909;-34
2021/09/18 01:55:30;;;;;;;;;;;;;;;13.67;78.03;101652.34;5053625;28;20352;-34
2021/09/18 01:57:57;;;;;;;;;;;;;;;13.63;78.12;101651.13;5053968;28;19909;-34
2021/09/18 02:00:22;;;;;;;;;;;;;;;13.62;78.01;101658.47;5053337;28;19947;-35
2021/09/18 02:02:48;;;;;;;;;;;;;;;13.63;78.61;101662.00;5053308;28;20376;-34
2021/09/18 02:05:16;;;;;;;;;;;;;;;13.65;78.46;101659.88;5053281;28;19916;-34
2021/09/18 02:07:41;;;;;;;;;;;;;;;13.65;78.42;101668.84;5054090;28;19909;-34
2021/09/18 02:10:08;;;;;;;;;;;;;;;13.65;78.16;101657.97;5053498;28;19978;-34
2021/09/18 02:12:34;;;;;;;;;;;;;;;13.65;78.24;101649.00;5053949;28;19908;-35
2021/09/18 02:14:59;;;;;;;;;;;;;;;13.61;78.46;101648.63;5053443;28;20015;-35
2021/09/18 02:17:25;;;;;;;;;;;;;;;13.61;78.27;101653.22;5053628;28;20364;-35
2021/09/18 02:19:50;;;;;;;;;;;;;;;13.60;78.24;101652.41;5053434;28;19909;-35
2021/09/18 02:22:15;;;;;;;;;;;;;;;13.58;78.49;101640.13;5056263;28;19916;-35
2021/09/18 02:24:40;;;;;;;;;;;;;;;13.55;78.56;101640.59;5057282;28;20303;-35
2021/09/18 02:27:06;;;;;;;;;;;;;;;13.53;78.29;101634.56;5057250;28;20357;-35
2021/09/18 02:29:31;;;;;;;;;;;;;;;13.49;78.93;101631.47;5057907;28;19944;-35
2021/09/18 02:31:56;;;;;;;;;;;;;;;13.45;78.52;101632.97;5057364;28;19931;-35
2021/09/18 02:34:21;;;;;;;;;;;;;;;13.42;78.25;101629.91;5057303;28;20261;-35
2021/09/18 02:36:47;;;;;;;;;;;;;;;13.39;78.80;101629.31;5057660;28;19916;-35
2021/09/18 02:39:12;;;;;;;;;;;;;;;13.37;78.73;101628.72;5057177;28;19908;-35
2021/09/18 02:41:37;;;;;;;;;;;;;;;13.35;78.78;101627.28;5057469;28;19909;-35
2021/09/18 02:44:02;;;;;;;;;;;;;;;13.31;78.86;101624.19;5057595;28;20011;-35
2021/09/18 02:46:28;;;;;;;;;;;;;;;13.29;78.64;101622.78;5057442;28;20190;-35
2021/09/18 02:48:53;;;;;;;;;;;;;;;13.26;78.77;101623.22;5056896;28;19920;-35
2021/09/18 02:51:19;;;;;;;;;;;;;;;13.26;78.87;101621.34;5057237;28;20272;-35
2021/09/18 02:53:44;;;;;;;;;;;;;;;13.27;78.72;101619.44;5056993;28;20325;-35
2021/09/18 02:56:09;;;;;;;;;;;;;;;13.31;79.00;101623.38;5057323;28;20380;-35
2021/09/18 02:58:34;;;;;;;;;;;;;;;13.32;78.84;101609.56;5057416;28;19995;-35
2021/09/18 03:01:00;;;;;;;;;;;;;;;13.31;78.98;101612.50;5057109;28;19915;-35
2021/09/18 03:03:25;;;;;;;;;;;;;;;13.26;79.47;101612.34;5057140;28;19995;-35
2021/09/18 03:05:50;;;;;;;;;;;;;;;13.22;81.35;101614.69;5057083;28;19992;-35
2021/09/18 03:08:15;;;;;;;;;;;;;;;13.17;80.66;101608.28;5056450;28;19908;-35
2021/09/18 03:10:40;;;;;;;;;;;;;;;13.17;80.14;101614.53;5056779;28;19908;-35
2021/09/18 03:13:06;;;;;;;;;;;;;;;13.15;79.97;101612.06;5055934;28;19935;-35
2021/09/18 03:15:31;;;;;;;;;;;;;;;13.14;79.84;101618.53;5057164;28;19908;-35
2021/09/18 03:17:57;;;;;;;;;;;;;;;13.15;79.59;101613.94;5057115;28;20000;-35
2021/09/18 03:20:22;;;;;;;;;;;;;;;13.15;79.86;101606.63;5056501;28;20257;-35
2021/09/18 03:22:48;;;;;;;;;;;;;;;13.13;79.65;101607.94;5056618;28;19919;-35
2021/09/18 03:25:13;;;;;;;;;;;;;;;13.09;79.65;101612.16;5055142;28;19965;-35
2021/09/18 03:27:38;;;;;;;;;;;;;;;13.05;79.72;101608.22;5057311;28;19957;-35
2021/09/18 03:30:04;;;;;;;;;;;;;;;13.01;79.80;101596.16;5056710;28;19909;-35
2021/09/18 03:32:30;;;;;;;;;;;;;;;12.98;80.49;101605.63;5055437;28;19927;-35
2021/09/18 03:34:56;;;;;;;;;;;;;;;12.99;80.11;101609.16;5054570;28;19912;-35
2021/09/18 03:37:21;;;;;;;;;;;;;;;13.01;80.29;101613.28;5056799;28;19908;-35
2021/09/18 03:39:46;;;;;;;;;;;;;;;13.05;80.28;101614.47;5056215;28;20000;-35
2021/09/18 03:42:12;;;;;;;;;;;;;;;13.09;80.18;101610.25;5056666;28;19959;-35
2021/09/18 03:44:37;;;;;;;;;;;;;;;13.13;79.64;101610.63;5056790;28;19963;-35
2021/09/18 03:47:02;;;;;;;;;;;;;;;13.11;80.00;101608.13;5055188;28;19916;-35
2021/09/18 03:49:27;;;;;;;;;;;;;;;13.13;79.96;101610.63;5056041;28;20288;-35
2021/09/18 03:51:53;;;;;;;;;;;;;;;13.12;80.06;101609.78;5056338;28;19909;-35
2021/09/18 03:54:19;;;;;;;;;;;;;;;13.09;80.41;101604.81;5056575;28;20256;-35
2021/09/18 03:56:44;;;;;;;;;;;;;;;13.07;80.41;101611.53;5056014;28;19998;-35
2021/09/18 03:59:09;;;;;;;;;;;;;;;13.04;80.24;101610.13;5055397;28;19955;-35
2021/09/18 04:01:34;;;;;;;;;;;;;;;13.05;80.39;101608.22;5055722;28;19912;-35
2021/09/18 04:04:00;;;;;;;;;;;;;;;13.04;85.44;101610.13;5055298;28;20075;-35
2021/09/18 04:06:26;;;;;;;;;;;;;;;12.93;84.78;101608.16;5055983;28;19919;-35
2021/09/18 04:08:52;;;;;;;;;;;;;;;12.90;82.99;101608.63;5055578;28;19909;-35
2021/09/18 04:11:17;;;;;;;;;;;;;;;12.94;82.93;101612.56;5055782;28;19909;-34
2021/09/18 04:13:42;;;;;;;;;;;;;;;12.96;82.16;101615.03;5055718;28;20006;-35
2021/09/18 04:16:07;;;;;;;;;;;;;;;12.98;81.91;101616.47;5056006;28;19913;-35
2021/09/18 04:18:32;;;;;;;;;;;;;;;13.01;81.77;101620.59;5055072;28;19909;-35
2021/09/18 04:20:58;;;;;;;;;;;;;;;13.01;81.62;101624.13;5055376;28;19909;-35
2021/09/18 04:23:23;;;;;;;;;;;;;;;13.01;81.48;101624.13;5055311;28;20345;-35
2021/09/18 04:25:48;;;;;;;;;;;;;;;13.02;81.22;101625.78;5056040;28;19913;-35
2021/09/18 04:28:14;;;;;;;;;;;;;;;13.03;81.67;101634.75;5054896;28;20426;-35
2021/09/18 04:30:39;;;;;;;;;;;;;;;13.05;81.52;101635.38;5055455;28;20246;-35
2021/09/18 04:33:04;;;;;;;;;;;;;;;13.04;81.50;101631.84;5055488;28;19947;-35
2021/09/18 04:35:29;;;;;;;;;;;;;;;13.03;81.43;101637.47;5055779;28;19909;-35
2021/09/18 04:37:55;;;;;;;;;;;;;;;13.03;81.35;101634.75;5055076;28;20238;-35
2021/09/18 04:40:20;;;;;;;;;;;;;;;13.04;81.68;101639.97;5054600;28;19909;-35
2021/09/18 04:42:45;;;;;;;;;;;;;;;12.99;81.74;101647.16;5054884;28;20280;-35
2021/09/18 04:45:11;;;;;;;;;;;;;;;12.94;81.84;101647.00;5054468;28;20337;-35
2021/09/18 04:47:36;;;;;;;;;;;;;;;12.90;82.13;101649.34;5054481;28;19913;-35
2021/09/18 04:50:01;;;;;;;;;;;;;;;12.86;82.22;101653.56;5055061;28;19956;-35
2021/09/18 04:52:27;;;;;;;;;;;;;;;12.80;81.74;101643.63;5054789;28;20304;-35
2021/09/18 04:54:53;;;;;;;;;;;;;;;12.78;81.75;101649.25;5055159;28;19908;-35
2021/09/18 04:57:18;;;;;;;;;;;;;;;12.78;81.69;101648.44;5055105;28;19909;-35
2021/09/18 04:59:44;;;;;;;;;;;;;;;12.78;81.75;101651.13;5054535;28;19954;-36
2021/09/18 05:02:09;;;;;;;;;;;;;;;12.78;81.58;101659.28;5054500;28;19919;-36
2021/09/18 05:04:34;;;;;;;;;;;;;;;12.75;81.63;101657.88;5054474;28;19908;-36
2021/09/18 05:06:59;;;;;;;;;;;;;;;12.73;81.70;101659.13;5054497;28;20341;-35
2021/09/18 05:09:24;;;;;;;;;;;;;;;12.70;81.50;101656.88;5054903;28;19909;-36
2021/09/18 05:11:50;;;;;;;;;;;;;;;12.68;81.34;101659.81;5054520;28;20414;-36
2021/09/18 05:14:17;;;;;;;;;;;;;;;12.67;81.68;101666.28;5054313;28;19971;-36
2021/09/18 05:16:42;;;;;;;;;;;;;;;12.63;81.42;101665.06;5054188;28;19915;-36
2021/09/18 05:19:07;;;;;;;;;;;;;;;12.61;81.76;101670.75;5054259;28;19913;-36
2021/09/18 05:21:32;;;;;;;;;;;;;;;12.60;81.67;101670.97;5054078;28;19909;-36
2021/09/18 05:23:58;;;;;;;;;;;;;;;12.56;81.75;101686.84;5053917;28;19908;-36
2021/09/18 05:26:23;;;;;;;;;;;;;;;12.55;81.92;101679.78;5054378;28;19909;-36
2021/09/18 05:28:48;;;;;;;;;;;;;;;12.56;82.17;101676.00;5054110;28;19908;-36
2021/09/18 05:31:13;;;;;;;;;;;;;;;12.56;82.27;101681.44;5054388;28;19915;-36
2021/09/18 05:33:39;;;;;;;;;;;;;;;12.54;82.11;101683.56;5053971;28;20337;-36
2021/09/18 05:36:04;;;;;;;;;;;;;;;12.51;82.92;101684.00;5054503;28;20313;-36
2021/09/18 05:38:29;;;;;;;;;;;;;;;12.49;82.57;101680.69;5053875;28;19999;-36
2021/09/18 05:40:54;;;;;;;;;;;;;;;12.48;82.88;101681.72;5054171;28;19962;-36
2021/09/18 05:43:20;;;;;;;;;;;;;;;12.48;82.76;101679.00;5053808;28;20002;-36
2021/09/18 05:45:45;;;;;;;;;;;;;;;12.48;82.84;101687.13;5053822;28;19991;-36
2021/09/18 05:48:10;;;;;;;;;;;;;;;12.49;82.87;101688.81;5054196;28;19913;-36
2021/09/18 05:50:35;;;;;;;;;;;;;;;12.49;83.34;101683.41;5054605;28;19971;-36
2021/09/18 05:53:00;;;;;;;;;;;;;;;12.51;82.95;101684.00;5053604;28;19931;-36
2021/09/18 05:55:26;;;;;;;;;;;;;;;12.55;83.37;101684.38;5053962;28;19916;-35
2021/09/18 05:57:51;;;;;;;;;;;;;;;12.54;83.24;101686.25;5052893;28;19908;-36
2021/09/18 06:00:16;;;;;;;;;;;;;;;12.56;82.89;101688.75;5053114;28;19908;-36
2021/09/18 06:02:42;;;;;;;;;;;;;;;12.59;82.87;101681.00;5053923;28;19908;-36
2021/09/18 06:05:08;;;;;;;;;;;;;;;12.62;83.53;101680.53;5053723;28;19913;-36
2021/09/18 06:07:33;;;;;;;;;;;;;;;12.62;85.44;101683.25;5053957;28;19908;-36
2021/09/18 06:09:58;;;;;;;;;;;;;;;12.56;87.10;101689.56;5053224;28;19920;-36
2021/09/18 06:12:24;;;;;;;;;;;;;;;12.49;86.47;101686.09;5053264;28;19934;-36
2021/09/18 06:14:49;;;;;;;;;;;;;;;12.47;86.28;101693.63;5053633;28;19913;-36
2021/09/18 06:17:14;;;;;;;;;;;;;;;12.45;87.22;101693.03;5052368;28;19928;-36
2021/09/18 06:19:39;;;;;;;;;;;;;;;12.43;87.56;101686.97;5053283;28;19923;-35
2021/09/18 06:22:04;;;;;;;;;;;;;;;12.43;86.72;101695.13;5052993;28;19949;-36
2021/09/18 06:24:30;;;;;;;;;;;;;;;12.43;87.48;101691.56;5052851;28;19963;-36
2021/09/18 06:26:55;;;;;;;;;;;;;;;12.43;87.47;101697.81;5053718;28;19951;-36
2021/09/18 06:29:20;;;;;;;;;;;;;;;12.48;87.49;101699.88;5053833;28;19920;-36
2021/09/18 06:31:45;;;;;;;;;;;;;;;12.50;87.67;101704.03;5053678;28;19909;-36
2021/09/18 06:34:11;;;;;;;;;;;;;;;12.55;87.48;101704.19;5053382;28;19912;-36
2021/09/18 06:36:36;;;;;;;;;;;;;;;12.56;87.55;101711.28;5053158;28;20315;-36
2021/09/18 06:39:02;;;;;;;;;;;;;;;12.54;89.86;101709.81;5052268;28;19959;-36
2021/09/18 06:41:27;;;;;;;;;;;;;;;12.51;90.08;101715.72;5052505;28;19916;-36
2021/09/18 06:43:52;;;;;;;;;;;;;;;12.52;88.57;101726.34;5053014;28;20345;-36
2021/09/18 06:46:18;;;;;;;;;;;;;;;12.62;89.01;101723.13;5053634;28;19959;-36
2021/09/18 06:48:43;;;;;;;;;;;;;;;12.70;89.73;101719.31;5052792;28;19913;-36
2021/09/18 06:51:09;;;;;;;;;;;;;;;12.73;89.89;101729.69;5053263;28;19954;-36
2021/09/18 06:53:34;;;;;;;;;;;;;;;12.72;89.66;101731.56;5053055;28;20305;-34
2021/09/18 06:55:59;;;;;;;;;;;;;;;12.74;89.28;101731.38;5052785;28;19912;-34
2021/09/18 06:58:24;;;;;;;;;;;;;;;12.77;89.83;101726.31;5053211;28;19909;-34
2021/09/18 07:00:50;;;;;;;;;;;;;;;12.80;89.46;101733.19;5053261;28;20301;-35
2021/09/18 07:03:15;;;;;;;;;;;;;;;12.88;89.25;101733.72;5052867;28;19915;-35
2021/09/18 07:05:40;;;;;;;;;;;;;;;12.95;89.42;101721.97;5052585;28;20002;-35
2021/09/18 07:08:05;;;;;;;;;;;;;;;13.01;89.07;101724.59;5055460;28;19909;-36
2021/09/18 07:10:31;;;;;;;;;;;;;;;13.06;90.47;101727.47;5056211;28;19909;-35
2021/09/18 07:12:58;;;;;;;;;;;;;;;13.12;89.36;101723.84;5056972;28;19912;-35
2021/09/18 07:15:23;;;;;;;;;;;;;;;13.18;91.40;101722.13;5055479;28;19999;-35
2021/09/18 07:17:49;;;;;;;;;;;;;;;13.20;92.99;101730.03;5057398;28;19999;-35
2021/09/18 07:20:14;;;;;;;;;;;;;;;13.19;93.79;101731.94;5056391;28;19917;-35
2021/09/18 07:22:40;;;;;;;;;;;;;;;13.21;93.86;101728.97;5055819;28;19922;-35
2021/09/18 07:25:06;;;;;;;;;;;;;;;13.23;93.68;101729.63;5056285;28;19962;-35
2021/09/18 07:27:31;;;;;;;;;;;;;;;13.33;94.14;101727.19;5056987;28;19947;-35
2021/09/18 07:29:57;;;;;;;;;;;;;;;13.40;95.73;101726.03;5056332;28;19952;-35
2021/09/18 07:32:23;;;;;;;;;;;;;;;13.51;96.46;101729.88;5056670;28;19909;-35
2021/09/18 07:34:48;;;;;;;;;;;;;;;13.60;95.50;101724.97;5056383;28;20369;-35
2021/09/18 07:37:13;;;;;;;;;;;;;;;13.72;94.01;101733.19;5056035;28;20395;-34
2021/09/18 07:39:38;;;;;;;;;;;;;;;13.89;96.38;101734.16;5056418;28;19958;-35
2021/09/18 07:42:04;;;;;;;;;;;;;;;14.00;95.13;101738.81;5056539;28;19970;-35
2021/09/18 07:44:29;;;;;;;;;;;;;;;14.12;95.50;101739.69;5055964;28;20410;-35
2021/09/18 07:46:54;;;;;;;;;;;;;;;14.24;94.03;101736.16;5056304;28;19975;-35
2021/09/18 07:49:19;;;;;;;;;;;;;;;14.38;93.01;101732.16;5055879;28;19952;-35
2021/09/18 07:51:45;;;;;;;;;;;;;;;14.51;93.25;101737.41;5056071;28;19959;-35
2021/09/18 07:54:10;;;;;;;;;;;;;;;14.63;94.27;101731.97;5055817;28;19995;-35
2021/09/18 07:56:36;;;;;;;;;;;;;;;14.73;94.60;101728.66;5055483;28;19916;-35
2021/09/18 07:59:01;;;;;;;;;;;;;;;14.83;94.29;101734.34;5055765;28;19955;-35
2021/09/18 08:01:30;;;;;;;;;;;;;;;14.95;94.14;101743.34;5056464;28;19963;-35
2021/09/18 08:04:04;;;;;;;;;;;;;;;15.06;94.16;101744.38;5055237;28;19912;-35
2021/09/18 08:06:30;;;;;;;;;;;;;;;15.17;93.25;101738.06;5056271;28;19912;-35
2021/09/18 08:08:55;;;;;;;;;;;;;;;15.30;92.12;101743.28;5055169;28;20311;-35
2021/09/18 08:11:22;;;;;;;;;;;;;;;15.45;92.02;101737.31;5055965;28;19975;-35
2021/09/18 08:13:47;;;;;;;;;;;;;;;15.58;91.43;101736.22;5055688;28;19916;-35
2021/09/18 08:16:13;;;;;;;;;;;;;;;15.70;91.02;101739.72;5055981;28;20321;-38
2021/09/18 08:18:38;;;;;;;;;;;;;;;15.82;91.04;101742.44;5055409;28;20381;-35
2021/09/18 08:21:04;;;;;;;;;;;;;;;15.90;90.76;101742.00;5055191;28;19916;-35
2021/09/18 08:23:29;;;;;;;;;;;;;;;16.02;90.04;101736.53;5055275;28;19913;-35
2021/09/18 08:25:54;;;;;;;;;;;;;;;16.14;90.14;101735.38;5055793;28;20202;-35
2021/09/18 08:28:19;;;;;;;;;;;;;;;16.20;88.67;101739.84;5055120;28;20341;-35
2021/09/18 08:30:45;;;;;;;;;;;;;;;16.25;88.93;101741.84;5054964;28;19948;-35
2021/09/18 08:33:10;;;;;;;;;;;;;;;16.28;88.36;101740.50;5055099;28;19954;-35
2021/09/18 08:35:35;;;;;;;;;;;;;;;16.32;88.30;101733.50;5055503;28;19908;-35
2021/09/18 08:38:00;;;;;;;;;;;;;;;16.36;87.77;101737.38;5055451;28;19909;-35
2021/09/18 08:40:28;;;;;;;;;;;;;;;16.43;87.94;101740.75;5054642;28;19909;-35
2021/09/18 08:42:54;;;;;;;;;;;;;;;16.55;88.15;101740.69;5055000;28;19916;-35
2021/09/18 08:45:19;;;;;;;;;;;;;;;16.68;87.63;101745.78;5055584;28;19958;-35
2021/09/18 08:47:46;;;;;;;;;;;;;;;16.72;86.43;101747.81;5055035;28;19909;-35
2021/09/18 08:50:15;;;;;;;;;;;;;;;16.84;86.70;101746.91;5055113;28;19919;-36
2021/09/18 08:52:41;;;;;;;;;;;;;;;16.93;85.84;101748.09;5054708;28;19920;-35
2021/09/18 08:55:06;;;;;;;;;;;;;;;17.01;83.86;101736.75;5054878;28;19909;-35
2021/09/18 08:57:32;;;;;;;;;;;;;;;17.15;84.34;101740.78;5054936;28;19908;-35
2021/09/18 08:59:57;;;;;;;;;;;;;;;17.31;85.03;101739.06;5055177;28;19916;-35
2021/09/18 09:02:24;;;;;;;;;;;;;;;17.48;84.80;101739.81;5055102;28;19912;-36
2021/09/18 09:05:00;;;;;;;;;;;;;;;17.65;84.36;101742.47;5054437;28;19912;-35
2021/09/18 09:07:25;;;;;;;;;;;;;;;17.76;80.94;101743.44;5054696;28;19970;-35
2021/09/18 09:09:55;;;;;;;;;;;;;;;17.76;79.52;101740.69;5054112;28;20357;-35
2021/09/18 09:12:27;;;;;;;;;;;;;;;17.81;80.28;101740.75;5053249;28;19923;-36
2021/09/18 09:14:52;;;;;;;;;;;;;;;17.89;80.58;101739.47;5053739;28;19908;-36
2021/09/18 09:17:28;;;;;;;;;;;;;;;18.00;81.22;101743.94;5054145;28;20385;-36
2021/09/18 09:19:54;;;;;;;;;;;;;;;18.15;80.93;101741.34;5054939;28;20278;-36
2021/09/18 09:22:38;;;;;;;;;;;;;;;18.25;79.91;101733.25;5054678;28;19912;-36
2021/09/18 09:25:03;;;;;;;;;;;;;;;18.38;80.67;101736.63;5054015;28;19908;-36
2021/09/18 09:27:28;;;;;;;;;;;;;;;18.48;79.48;101737.53;5053981;28;19966;-35
2021/09/18 09:29:57;;;;;;;;;;;;;;;18.55;78.48;101736.50;5054013;28;20304;-36
2021/09/18 09:32:28;;;;;;;;;;;;;;;18.66;78.83;101739.03;5054150;28;19956;-36
2021/09/18 09:34:54;;;;;;;;;;;;;;;18.81;78.53;101746.56;5053982;28;19915;-35
2021/09/18 09:37:20;;;;;;;;;;;;;;;18.93;77.86;101738.13;5054676;28;19916;-36
2021/09/18 09:39:52;;;;;;;;;;;;;;;18.94;74.60;101745.28;5053613;28;19909;-35
2021/09/18 09:42:24;;;;;;;;;;;;;;;19.07;75.56;101735.75;5054258;28;19954;-35
2021/09/18 09:44:49;;;;;;;;;;;;;;;19.25;76.92;101735.28;5054195;28;20369;-36
2021/09/18 09:47:18;;;;;;;;;;;;;;;19.43;77.48;101731.25;5053747;28;19959;-35
2021/09/18 09:49:43;;;;;;;;;;;;;;;19.48;73.34;101731.28;5053559;28;19913;-36
2021/09/18 09:52:16;;;;;;;;;;;;;;;19.55;72.05;101735.41;5053803;28;19912;-35
2021/09/18 09:54:41;;;;;;;;;;;;;;;19.69;74.32;101734.94;5053809;28;19909;-35
2021/09/18 09:57:08;;;;;;;;;;;;;;;19.61;68.26;101733.53;5053667;28;19974;-36
2021/09/18 09:59:33;;;;;;;;;;;;;;;19.50;69.06;101734.56;5053235;28;19908;-35
2021/09/18 10:01:58;;;;;;;;;;;;;;;19.62;71.25;101735.19;5054115;28;19912;-35
2021/09/18 10:04:24;;;;;;;;;;;;;;;19.73;72.80;101741.53;5053510;28;20380;-35
2021/09/18 10:06:49;;;;;;;;;;;;;;;19.79;72.63;101740.44;5053483;28;19913;-36
2021/09/18 10:09:15;;;;;;;;;;;;;;;19.89;69.52;101739.63;5053427;28;19909;-36
2021/09/18 10:11:41;;;;;;;;;;;;;;;19.96;68.33;101740.19;5053442;28;20338;-35
2021/09/18 10:14:07;;;;;;;;;;;;;;;20.11;68.33;101736.66;5053636;28;19944;-36
2021/09/18 10:16:33;;;;;;;;;;;;;;;20.26;69.75;101734.75;5053634;28;19908;-36
2021/09/18 10:19:02;;;;;;;;;;;;;;;20.45;69.65;101736.94;5053660;28;19916;-36
2021/09/18 10:24:11;;;;;;;;;;;;;;;20.73;69.52;101728.13;5053064;28;19915;-36
2021/09/18 10:26:37;;;;;;;;;;;;;;;20.87;64.00;101727.56;5053901;28;20003;-36
2021/09/18 10:29:03;;;;;;;;;;;;;;;20.95;66.32;101725.06;5053273;28;20340;-36
2021/09/18 10:31:28;;;;;;;;;;;;;;;21.16;66.26;101725.81;5053935;28;19916;-35
2021/09/18 10:33:54;;;;;;;;;;;;;;;21.31;60.77;101728.53;5053267;28;19908;-36
2021/09/18 10:36:28;;;;;;;;;;;;;;;21.31;61.74;101722.22;5053516;28;19913;-36
2021/09/18 10:39:12;;;;;;;;;;;;;;;21.06;59.92;101721.16;5053145;28;19912;-36
2021/09/18 10:41:41;;;;;;;;;;;;;;;20.88;60.25;101718.19;5053516;28;19920;-35
2021/09/18 10:44:07;;;;;;;;;;;;;;;20.93;63.96;101721.75;5057002;28;19908;-36
2021/09/18 10:46:39;;;;;;;;;;;;;;;20.94;61.24;101717.94;5057462;28;19915;-36
2021/09/18 10:49:04;;;;;;;;;;;;;;;20.98;59.79;101715.41;5057019;28;19909;-36
2021/09/18 10:51:33;;;;;;;;;;;;;;;21.08;63.14;101707.13;5055919;28;19915;-36
2021/09/18 10:54:03;;;;;;;;;;;;;;;21.19;63.55;101713.44;5057180;28;19931;-36
2021/09/18 10:56:48;;;;;;;;;;;;;;;21.25;64.46;101707.63;5057834;28;20225;-36
2021/09/18 10:59:14;;;;;;;;;;;;;;;21.32;63.25;101710.09;5034699;28;19909;-36
2021/09/18 11:01:39;;;;;;;;;;;;;;;21.31;63.03;101706.53;5034803;28;19919;-36
2021/09/18 11:04:24;;;;;;;;;;;;;;;21.31;61.17;101706.53;5034570;28;19909;-36
2021/09/18 11:06:49;;;;;;;;;;;;;;;21.36;64.02;101700.19;5034456;28;20281;-36
2021/09/18 11:09:15;;;;;;;;;;;;;;;21.48;60.57;101702.59;5034360;28;19909;-35
2021/09/18 11:11:40;;;;;;;;;;;;;;;21.58;61.90;101694.28;5034438;28;19992;-36
2021/09/18 11:14:08;;;;;;;;;;;;;;;21.65;62.61;101692.03;5035006;28;19913;-35
2021/09/18 11:16:36;;;;;;;;;;;;;;;21.52;60.66;101689.91;5034815;28;19909;-35
2021/09/18 11:19:09;;;;;;;;;;;;;;;21.57;60.56;101689.91;5034624;28;19909;-35
2021/09/18 11:21:36;;;;;;;;;;;;;;;21.64;60.20;101693.16;5034893;28;19915;-36
2021/09/18 11:24:21;;;;;;;;;;;;;;;21.66;62.13;101696.41;5034529;28;20039;-36
2021/09/18 11:26:55;;;;;;;;;;;;;;;21.73;57.32;101696.94;5035043;28;19909;-36
2021/09/18 11:29:23;;;;;;;;;;;;;;;21.74;55.51;101698.59;5017794;28;19909;-34
2021/09/18 11:31:57;;;;;;;;;;;;;;;21.66;57.76;101693.66;5034667;28;20292;-34
2021/09/18 11:34:23;;;;;;;;;;;;;;;21.74;58.76;101687.56;5033897;28;19915;-34
2021/09/18 11:36:48;;;;;;;;;;;;;;;21.60;52.76;101692.06;5050379;28;20316;-34
2021/09/18 11:39:14;;;;;;;;;;;;;;;21.53;53.88;101692.38;5056165;28;19948;-34
2021/09/18 11:41:39;;;;;;;;;;;;;;;21.72;55.69;101691.72;5056123;28;19913;-34
2021/09/18 11:44:11;;;;;;;;;;;;;;;21.90;55.72;101684.72;5056147;28;20238;-34
2021/09/18 11:46:37;;;;;;;;;;;;;;;21.80;55.14;101686.41;5055816;28;19908;-34
2021/09/18 11:49:03;;;;;;;;;;;;;;;21.92;54.15;101685.25;5055619;28;20062;-34
2021/09/18 11:51:28;;;;;;;;;;;;;;;22.09;56.45;101677.41;5054483;28;19913;-34
2021/09/18 11:53:59;;;;;;;;;;;;;;;22.18;54.13;101675.69;5054570;28;19920;-34
2021/09/18 11:56:24;;;;;;;;;;;;;;;22.28;55.61;101675.59;5055761;28;19908;-34
2021/09/18 11:58:50;;;;;;;;;;;;;;;22.36;55.83;101680.50;5055118;28;19970;-36
2021/09/18 12:01:15;;;;;;;;;;;;;;;22.35;54.54;101678.84;5055322;28;19998;-36
2021/09/18 12:03:43;;;;;;;;;;;;;;;22.37;54.61;101675.81;5055246;28;19909;-35
2021/09/18 12:06:16;;;;;;;;;;;;;;;22.30;55.59;101673.41;5055578;28;19919;-36
2021/09/18 12:08:43;;;;;;;;;;;;;;;22.05;54.44;101679.06;5054957;28;19908;-36
2021/09/18 12:11:08;;;;;;;;;;;;;;;22.09;55.40;101674.63;5055187;28;19913;-34
2021/09/18 12:13:44;;;;;;;;;;;;;;;22.23;55.99;101675.66;5054859;28;20023;-35
2021/09/18 12:16:10;;;;;;;;;;;;;;;22.35;53.28;101669.75;5055992;28;19916;-35
2021/09/18 12:18:38;;;;;;;;;;;;;;;22.33;53.65;101667.28;5054490;28;20015;-35
2021/09/18 12:21:06;;;;;;;;;;;;;;;22.35;53.96;101670.59;5055472;28;19913;-36
2021/09/18 12:23:33;;;;;;;;;;;;;;;22.31;55.19;101668.72;5054918;28;19909;-35
2021/09/18 12:26:03;;;;;;;;;;;;;;;22.15;52.81;101668.00;5055069;28;19951;-35
2021/09/18 12:28:29;;;;;;;;;;;;;;;22.30;55.42;101672.56;5055403;28;19979;-35
2021/09/18 12:30:55;;;;;;;;;;;;;;;22.45;53.89;101669.66;5055203;28;19912;-35
2021/09/18 12:33:33;;;;;;;;;;;;;;;22.34;53.09;101657.91;5054664;28;20379;-36